Time,TemperatureF,DewpointF,PressureIn,WindDirection,WindDirectionDegrees,WindSpeedMPH,WindSpeedGustMPH,Humidity,HourlyPrecipIn,Conditions,Clouds,dailyrainin,SolarRadiationWatts/m^2,SoftwareType,DateUTC
2013-08-14 00:02:00,75.5,61.1,29.78,SSE,168,4.0,6.0,61,0.00,,,0.00,0,Wunderground v.1.15,2013-08-14 07:02:00,
2013-08-14 00:08:00,75.5,61.1,29.78,SSE,168,4.0,6.0,61,0.00,,,0.00,0,Wunderground v.1.15,2013-08-14 07:08:00,
2013-08-14 00:13:00,75.4,60.5,29.78,SSE,168,5.0,7.0,60,0.00,,,0.00,0,Wunderground v.1.15,2013-08-14 07:13:00,
2013-08-14 00:18:00,75.2,60.4,29.78,South,170,2.0,9.0,60,0.00,,,0.00,0,Wunderground v.1.15,2013-08-14 07:18:00,
2013-08-14 00:23:00,75.0,60.2,29.78,South,170,2.0,9.0,60,0.00,,,0.00,0,Wunderground v.1.15,2013-08-14 07:23:00,
2013-08-14 00:29:00,74.7,60.4,29.78,South,173,6.0,9.0,61,0.00,,,0.00,0,Wunderground v.1.15,2013-08-14 07:29:00,
2013-08-14 00:35:00,74.5,60.2,29.78,South,176,2.0,10.0,61,0.00,,,0.00,0,Wunderground v.1.15,2013-08-14 07:35:00,
2013-08-14 00:40:00,74.3,60.4,29.78,South,173,1.0,5.0,62,0.00,,,0.00,0,Wunderground v.1.15,2013-08-14 07:40:00,
2013-08-14 00:45:00,74.1,60.7,29.79,South,173,5.0,10.0,63,0.00,,,0.00,0,Wunderground v.1.15,2013-08-14 07:45:00,
2013-08-14 00:50:00,73.9,61.4,29.79,South,174,0.0,4.0,65,0.00,,,0.00,0,Wunderground v.1.15,2013-08-14 07:50:00,
2013-08-14 00:56:00,73.6,61.1,29.79,South,174,0.0,4.0,65,0.00,,,0.00,0,Wunderground v.1.15,2013-08-14 07:56:00,
2013-08-14 01:01:00,73.3,61.3,29.79,South,174,6.0,6.0,66,0.00,,,0.00,0,Wunderground v.1.15,2013-08-14 08:01:00,
2013-08-14 01:06:00,73.1,61.5,29.78,South,177,0.0,6.0,67,0.00,,,0.00,0,Wunderground v.1.15,2013-08-14 08:06:00,
2013-08-14 01:11:00,73.0,61.4,29.79,South,177,0.0,2.0,67,0.00,,,0.00,0,Wunderground v.1.15,2013-08-14 08:11:00,
2013-08-14 01:16:00,72.8,61.2,29.79,South,177,5.0,5.0,67,0.00,,,0.00,0,Wunderground v.1.15,2013-08-14 08:16:00,
2013-08-14 01:22:00,72.8,61.6,29.79,South,177,0.0,0.0,68,0.00,,,0.00,0,Wunderground v.1.15,2013-08-14 08:22:00,
2013-08-14 01:27:00,72.7,61.5,29.79,South,177,0.0,0.0,68,0.00,,,0.00,0,Wunderground v.1.15,2013-08-14 08:27:00,
2013-08-14 01:32:00,72.7,61.5,29.79,South,177,0.0,0.0,68,0.00,,,0.00,0,Wunderground v.1.15,2013-08-14 08:32:00,
2013-08-14 01:37:00,72.6,61.4,29.78,South,177,0.0,0.0,68,0.00,,,0.00,0,Wunderground v.1.15,2013-08-14 08:37:00,
2013-08-14 01:43:00,72.5,60.9,29.79,South,177,0.0,0.0,67,0.00,,,0.00,0,Wunderground v.1.15,2013-08-14 08:43:00,
2013-08-14 01:49:00,72.4,60.8,29.78,South,177,0.0,0.0,67,0.00,,,0.00,0,Wunderground v.1.15,2013-08-14 08:49:00,
2013-08-14 01:55:00,72.4,60.8,29.78,South,177,0.0,0.0,67,0.00,,,0.00,0,Wunderground v.1.15,2013-08-14 08:55:00,
2013-08-14 02:00:00,72.4,60.8,29.78,South,177,0.0,0.0,67,0.00,,,0.00,0,Wunderground v.1.15,2013-08-14 09:00:00,
2013-08-14 02:05:00,72.3,60.7,29.78,South,177,0.0,0.0,67,0.00,,,0.00,0,Wunderground v.1.15,2013-08-14 09:05:00,
2013-08-14 02:10:00,72.3,60.7,29.78,South,177,0.0,0.0,67,0.00,,,0.00,0,Wunderground v.1.15,2013-08-14 09:10:00,
2013-08-14 02:15:00,72.2,60.6,29.78,South,177,0.0,0.0,67,0.00,,,0.00,0,Wunderground v.1.15,2013-08-14 09:15:00,
2013-08-14 02:20:00,72.2,60.6,29.78,South,177,0.0,0.0,67,0.00,,,0.00,0,Wunderground v.1.15,2013-08-14 09:20:00,
2013-08-14 02:25:00,72.1,60.5,29.78,South,177,0.0,0.0,67,0.00,,,0.00,0,Wunderground v.1.15,2013-08-14 09:25:00,
2013-08-14 02:30:00,72.2,60.6,29.78,South,177,0.0,0.0,67,0.00,,,0.00,0,Wunderground v.1.15,2013-08-14 09:30:00,
2013-08-14 02:35:00,72.2,60.6,29.78,South,177,0.0,0.0,67,0.00,,,0.00,0,Wunderground v.1.15,2013-08-14 09:35:00,
2013-08-14 02:40:00,72.3,60.7,29.78,South,177,0.0,0.0,67,0.00,,,0.00,0,Wunderground v.1.15,2013-08-14 09:40:00,
2013-08-14 02:45:00,72.3,60.7,29.79,South,177,0.0,0.0,67,0.00,,,0.00,0,Wunderground v.1.15,2013-08-14 09:45:00,
2013-08-14 02:50:00,72.3,60.7,29.78,South,177,0.0,0.0,67,0.00,,,0.00,0,Wunderground v.1.15,2013-08-14 09:50:00,
2013-08-14 02:55:00,72.3,60.7,29.78,South,177,0.0,0.0,67,0.00,,,0.00,0,Wunderground v.1.15,2013-08-14 09:55:00,
2013-08-14 03:00:00,72.2,60.6,29.78,South,177,0.0,0.0,67,0.00,,,0.00,0,Wunderground v.1.15,2013-08-14 10:00:00,
2013-08-14 03:05:00,72.1,61.0,29.78,South,177,0.0,0.0,68,0.00,,,0.00,0,Wunderground v.1.15,2013-08-14 10:05:00,
2013-08-14 03:10:00,72.1,61.0,29.78,South,177,0.0,0.0,68,0.00,,,0.00,0,Wunderground v.1.15,2013-08-14 10:10:00,
2013-08-14 03:15:00,71.9,60.8,29.78,South,177,0.0,0.0,68,0.00,,,0.00,0,Wunderground v.1.15,2013-08-14 10:15:00,
2013-08-14 03:20:00,71.8,60.7,29.78,South,177,0.0,0.0,68,0.00,,,0.00,0,Wunderground v.1.15,2013-08-14 10:20:00,
2013-08-14 03:25:00,71.7,60.6,29.78,South,177,0.0,0.0,68,0.00,,,0.00,0,Wunderground v.1.15,2013-08-14 10:25:00,
2013-08-14 03:30:00,71.6,60.9,29.78,South,177,0.0,0.0,69,0.00,,,0.00,0,Wunderground v.1.15,2013-08-14 10:30:00,
2013-08-14 03:35:00,71.4,60.7,29.78,South,177,0.0,0.0,69,0.00,,,0.00,0,Wunderground v.1.15,2013-08-14 10:35:00,
2013-08-14 03:40:00,71.3,61.0,29.78,South,177,0.0,0.0,70,0.00,,,0.00,0,Wunderground v.1.15,2013-08-14 10:40:00,
2013-08-14 03:45:00,71.2,61.3,29.78,South,177,0.0,0.0,71,0.00,,,0.00,0,Wunderground v.1.15,2013-08-14 10:45:00,
2013-08-14 03:50:00,71.1,60.8,29.78,South,177,0.0,0.0,70,0.00,,,0.00,0,Wunderground v.1.15,2013-08-14 10:50:00,
2013-08-14 03:55:00,71.0,61.1,29.77,South,177,0.0,0.0,71,0.00,,,0.00,0,Wunderground v.1.15,2013-08-14 10:55:00,
2013-08-14 04:00:00,70.8,61.3,29.77,South,177,0.0,0.0,72,0.00,,,0.00,0,Wunderground v.1.15,2013-08-14 11:00:00,
2013-08-14 04:06:00,70.6,61.1,29.77,South,177,0.0,0.0,72,0.00,,,0.00,0,Wunderground v.1.15,2013-08-14 11:06:00,
2013-08-14 04:11:00,70.5,61.4,29.77,South,177,0.0,0.0,73,0.00,,,0.00,0,Wunderground v.1.15,2013-08-14 11:11:00,
2013-08-14 04:16:00,70.3,61.2,29.77,South,177,0.0,0.0,73,0.00,,,0.00,0,Wunderground v.1.15,2013-08-14 11:16:00,
2013-08-14 04:21:00,70.2,61.1,29.78,South,177,0.0,0.0,73,0.00,,,0.00,0,Wunderground v.1.15,2013-08-14 11:21:00,
2013-08-14 04:26:00,70.0,60.9,29.78,South,177,0.0,0.0,73,0.00,,,0.00,0,Wunderground v.1.15,2013-08-14 11:26:00,
2013-08-14 04:31:00,69.8,61.1,29.78,South,177,0.0,0.0,74,0.00,,,0.00,0,Wunderground v.1.15,2013-08-14 11:31:00,
2013-08-14 04:36:00,69.7,61.4,29.78,South,177,0.0,0.0,75,0.00,,,0.00,0,Wunderground v.1.15,2013-08-14 11:36:00,
2013-08-14 04:41:00,69.5,61.2,29.78,South,177,0.0,0.0,75,0.00,,,0.00,0,Wunderground v.1.15,2013-08-14 11:41:00,
2013-08-14 04:46:00,69.4,61.5,29.78,South,177,0.0,0.0,76,0.00,,,0.00,0,Wunderground v.1.15,2013-08-14 11:46:00,
2013-08-14 04:51:00,69.3,61.4,29.78,South,177,0.0,0.0,76,0.00,,,0.00,0,Wunderground v.1.15,2013-08-14 11:51:00,
2013-08-14 04:56:00,69.2,61.3,29.78,South,177,0.0,0.0,76,0.00,,,0.00,0,Wunderground v.1.15,2013-08-14 11:56:00,
2013-08-14 05:01:00,69.1,61.2,29.79,South,177,0.0,0.0,76,0.00,,,0.00,0,Wunderground v.1.15,2013-08-14 12:01:00,
2013-08-14 05:06:00,69.0,61.1,29.79,South,177,0.0,0.0,76,0.00,,,0.00,0,Wunderground v.1.15,2013-08-14 12:06:00,
2013-08-14 05:11:00,68.9,61.4,29.79,South,177,0.0,0.0,77,0.00,,,0.00,0,Wunderground v.1.15,2013-08-14 12:11:00,
2013-08-14 05:16:00,68.9,61.4,29.79,South,177,0.0,0.0,77,0.00,,,0.00,0,Wunderground v.1.15,2013-08-14 12:16:00,
2013-08-14 05:21:00,68.8,61.3,29.79,South,177,0.0,0.0,77,0.00,,,0.00,0,Wunderground v.1.15,2013-08-14 12:21:00,
2013-08-14 05:26:00,68.6,61.5,29.79,South,177,0.0,0.0,78,0.00,,,0.00,0,Wunderground v.1.15,2013-08-14 12:26:00,
2013-08-14 05:31:00,68.5,61.4,29.79,South,177,0.0,0.0,78,0.00,,,0.00,0,Wunderground v.1.15,2013-08-14 12:31:00,
2013-08-14 05:36:00,68.5,61.4,29.79,South,177,0.0,0.0,78,0.00,,,0.00,0,Wunderground v.1.15,2013-08-14 12:36:00,
2013-08-14 05:41:00,68.3,61.2,29.79,South,177,0.0,0.0,78,0.00,,,0.00,0,Wunderground v.1.15,2013-08-14 12:41:00,
2013-08-14 05:46:00,68.2,61.1,29.79,South,177,0.0,0.0,78,0.00,,,0.00,0,Wunderground v.1.15,2013-08-14 12:46:00,
2013-08-14 05:51:00,68.1,61.0,29.79,South,177,0.0,0.0,78,0.00,,,0.00,5,Wunderground v.1.15,2013-08-14 12:51:00,
2013-08-14 05:56:00,68.0,61.2,29.80,South,177,0.0,0.0,79,0.00,,,0.00,9,Wunderground v.1.15,2013-08-14 12:56:00,
2013-08-14 06:01:00,67.9,61.1,29.80,South,177,0.0,0.0,79,0.00,,,0.00,14,Wunderground v.1.15,2013-08-14 13:01:00,
2013-08-14 06:06:00,67.9,61.5,29.80,South,177,0.0,0.0,80,0.00,,,0.00,19,Wunderground v.1.15,2013-08-14 13:06:00,
2013-08-14 06:11:00,67.8,61.4,29.80,South,177,0.0,0.0,80,0.00,,,0.00,25,Wunderground v.1.15,2013-08-14 13:11:00,
2013-08-14 06:16:00,67.8,61.8,29.80,South,177,0.0,0.0,81,0.00,,,0.00,32,Wunderground v.1.15,2013-08-14 13:16:00,
2013-08-14 06:21:00,67.9,61.9,29.80,South,177,0.0,0.0,81,0.00,,,0.00,30,Wunderground v.1.15,2013-08-14 13:21:00,
2013-08-14 06:26:00,67.9,61.9,29.80,South,177,0.0,0.0,81,0.00,,,0.00,37,Wunderground v.1.15,2013-08-14 13:26:00,
2013-08-14 06:31:00,68.0,61.9,29.81,South,177,0.0,0.0,81,0.00,,,0.00,54,Wunderground v.1.15,2013-08-14 13:31:00,
2013-08-14 06:36:00,68.1,62.4,29.81,South,177,0.0,0.0,82,0.00,,,0.00,62,Wunderground v.1.15,2013-08-14 13:36:00,
2013-08-14 06:41:00,68.2,62.5,29.81,South,177,0.0,0.0,82,0.00,,,0.00,63,Wunderground v.1.15,2013-08-14 13:41:00,
2013-08-14 06:46:00,68.4,62.7,29.81,South,177,0.0,0.0,82,0.00,,,0.00,46,Wunderground v.1.15,2013-08-14 13:46:00,
2013-08-14 06:51:00,68.5,62.8,29.81,South,177,0.0,0.0,82,0.00,,,0.00,58,Wunderground v.1.15,2013-08-14 13:51:00,
2013-08-14 06:56:00,68.6,62.9,29.81,South,177,0.0,0.0,82,0.00,,,0.00,88,Wunderground v.1.15,2013-08-14 13:56:00,
2013-08-14 07:01:00,68.8,63.1,29.81,South,177,0.0,0.0,82,0.00,,,0.00,156,Wunderground v.1.15,2013-08-14 14:01:00,
2013-08-14 07:06:00,69.0,63.3,29.81,South,177,0.0,0.0,82,0.00,,,0.00,188,Wunderground v.1.15,2013-08-14 14:06:00,
2013-08-14 07:11:00,69.4,63.7,29.81,South,177,0.0,0.0,82,0.00,,,0.00,207,Wunderground v.1.15,2013-08-14 14:11:00,
2013-08-14 07:16:00,69.8,63.7,29.81,South,177,0.0,0.0,81,0.00,,,0.00,239,Wunderground v.1.15,2013-08-14 14:16:00,
2013-08-14 07:21:00,70.4,63.9,29.80,South,177,0.0,0.0,80,0.00,,,0.00,267,Wunderground v.1.15,2013-08-14 14:21:00,
2013-08-14 07:26:00,71.4,64.2,29.80,South,177,0.0,0.0,78,0.00,,,0.00,288,Wunderground v.1.15,2013-08-14 14:26:00,
2013-08-14 07:31:00,72.3,64.3,29.80,South,177,0.0,0.0,76,0.00,,,0.00,313,Wunderground v.1.15,2013-08-14 14:31:00,
2013-08-14 07:36:00,73.3,64.1,29.80,South,177,0.0,0.0,73,0.00,,,0.00,329,Wunderground v.1.15,2013-08-14 14:36:00,
2013-08-14 07:41:00,74.2,63.8,29.80,South,177,0.0,0.0,70,0.00,,,0.00,345,Wunderground v.1.15,2013-08-14 14:41:00,
2013-08-14 07:46:00,75.0,63.7,29.80,South,177,0.0,2.0,68,0.00,,,0.00,364,Wunderground v.1.15,2013-08-14 14:46:00,
2013-08-14 07:51:00,75.8,64.1,29.80,South,177,0.0,0.0,67,0.00,,,0.00,360,Wunderground v.1.15,2013-08-14 14:51:00,
2013-08-14 07:56:00,76.4,63.8,29.80,South,177,0.0,5.0,65,0.00,,,0.00,380,Wunderground v.1.15,2013-08-14 14:56:00,
2013-08-14 08:01:00,76.7,63.6,29.80,South,177,0.0,1.0,64,0.00,,,0.00,411,Wunderground v.1.15,2013-08-14 15:01:00,
2013-08-14 08:06:00,77.0,63.9,29.80,South,177,0.0,1.0,64,0.00,,,0.00,429,Wunderground v.1.15,2013-08-14 15:06:00,
2013-08-14 08:11:00,77.4,64.3,29.81,South,177,0.0,0.0,64,0.00,,,0.00,445,Wunderground v.1.15,2013-08-14 15:11:00,
2013-08-14 08:16:00,77.7,63.6,29.80,South,177,0.0,1.0,62,0.00,,,0.00,462,Wunderground v.1.15,2013-08-14 15:16:00,
2013-08-14 08:21:00,78.2,64.1,29.80,South,177,0.0,0.0,62,0.00,,,0.00,480,Wunderground v.1.15,2013-08-14 15:21:00,
2013-08-14 08:26:00,78.7,64.6,29.81,South,177,0.0,1.0,62,0.00,,,0.00,497,Wunderground v.1.15,2013-08-14 15:26:00,
2013-08-14 08:31:00,79.1,64.5,29.81,South,177,0.0,6.0,61,0.00,,,0.00,512,Wunderground v.1.15,2013-08-14 15:31:00,
2013-08-14 08:36:00,79.5,64.4,29.80,South,177,0.0,6.0,60,0.00,,,0.00,533,Wunderground v.1.15,2013-08-14 15:36:00,
2013-08-14 08:41:00,80.0,64.4,29.81,South,177,0.0,3.0,59,0.00,,,0.00,552,Wunderground v.1.15,2013-08-14 15:41:00,
2013-08-14 08:46:00,80.4,63.8,29.81,South,177,0.0,3.0,57,0.00,,,0.00,561,Wunderground v.1.15,2013-08-14 15:46:00,
2013-08-14 08:51:00,80.9,62.7,29.81,South,177,0.0,6.0,54,0.00,,,0.00,577,Wunderground v.1.15,2013-08-14 15:51:00,
2013-08-14 08:56:00,81.3,62.0,29.81,South,177,0.0,6.0,52,0.00,,,0.00,596,Wunderground v.1.15,2013-08-14 15:56:00,
2013-08-14 09:01:00,81.7,61.2,29.81,South,177,0.0,1.0,50,0.00,,,0.00,608,Wunderground v.1.15,2013-08-14 16:01:00,
2013-08-14 09:06:00,82.1,62.2,29.81,South,177,0.0,3.0,51,0.00,,,0.00,621,Wunderground v.1.15,2013-08-14 16:06:00,
2013-08-14 09:11:00,82.6,61.5,29.81,South,177,0.0,0.0,49,0.00,,,0.00,629,Wunderground v.1.15,2013-08-14 16:11:00,
2013-08-14 09:16:00,83.3,61.6,29.80,South,177,0.0,1.0,48,0.00,,,0.00,656,Wunderground v.1.15,2013-08-14 16:16:00,
2013-08-14 09:22:00,83.8,60.8,29.80,South,177,0.0,0.0,46,0.00,,,0.00,671,Wunderground v.1.15,2013-08-14 16:22:00,
2013-08-14 09:27:00,84.4,61.4,29.81,South,177,5.0,5.0,46,0.00,,,0.00,684,Wunderground v.1.15,2013-08-14 16:27:00,
2013-08-14 09:32:00,84.8,60.5,29.81,South,177,0.0,5.0,44,0.00,,,0.00,701,Wunderground v.1.15,2013-08-14 16:32:00,
2013-08-14 09:37:00,85.2,59.5,29.81,South,174,0.0,7.0,42,0.00,,,0.00,715,Wunderground v.1.15,2013-08-14 16:37:00,
2013-08-14 09:42:00,85.4,60.4,29.81,South,174,0.0,6.0,43,0.00,,,0.00,728,Wunderground v.1.15,2013-08-14 16:42:00,
2013-08-14 09:47:00,85.6,61.2,29.81,South,174,0.0,6.0,44,0.00,,,0.00,742,Wunderground v.1.15,2013-08-14 16:47:00,
2013-08-14 09:52:00,85.8,62.0,29.81,South,176,0.0,0.0,45,0.00,,,0.00,756,Wunderground v.1.15,2013-08-14 16:52:00,
2013-08-14 09:57:00,86.0,60.9,29.81,SSW,199,0.0,4.0,43,0.00,,,0.00,773,Wunderground v.1.15,2013-08-14 16:57:00,
2013-08-14 10:02:00,86.2,61.1,29.81,SSW,202,0.0,4.0,43,0.00,,,0.00,796,Wunderground v.1.15,2013-08-14 17:02:00,
2013-08-14 10:07:00,86.5,61.3,29.81,SSW,202,0.0,4.0,43,0.00,,,0.00,800,Wunderground v.1.15,2013-08-14 17:07:00,
2013-08-14 10:12:00,86.8,61.0,29.80,SSW,202,0.0,0.0,42,0.00,,,0.00,807,Wunderground v.1.15,2013-08-14 17:12:00,
2013-08-14 10:17:00,87.1,61.2,29.81,SSW,208,0.0,5.0,42,0.00,,,0.00,817,Wunderground v.1.15,2013-08-14 17:17:00,
2013-08-14 10:23:00,87.3,61.4,29.80,SSW,209,0.0,0.0,42,0.00,,,0.00,824,Wunderground v.1.15,2013-08-14 17:23:00,
2013-08-14 10:28:00,87.5,60.9,29.80,SW,216,0.0,4.0,41,0.00,,,0.00,860,Wunderground v.1.15,2013-08-14 17:28:00,
2013-08-14 10:33:00,87.9,61.9,29.80,SW,216,0.0,0.0,42,0.00,,,0.00,881,Wunderground v.1.15,2013-08-14 17:33:00,
2013-08-14 10:38:00,88.4,64.4,29.80,SW,216,0.0,0.0,45,0.00,,,0.00,914,Wunderground v.1.15,2013-08-14 17:38:00,
2013-08-14 10:43:00,88.8,62.1,29.80,SW,216,0.0,0.0,41,0.00,,,0.00,919,Wunderground v.1.15,2013-08-14 17:43:00,
2013-08-14 10:48:00,89.2,61.0,29.80,SW,219,0.0,5.0,39,0.00,,,0.00,919,Wunderground v.1.15,2013-08-14 17:48:00,
2013-08-14 10:54:00,89.5,61.3,29.80,SW,219,0.0,0.0,39,0.00,,,0.00,926,Wunderground v.1.15,2013-08-14 17:54:00,
2013-08-14 10:59:00,89.9,60.9,29.79,SW,219,0.0,0.0,38,0.00,,,0.00,958,Wunderground v.1.15,2013-08-14 17:59:00,
2013-08-14 11:04:00,90.1,60.3,29.79,SW,220,0.0,8.0,37,0.00,,,0.00,988,Wunderground v.1.15,2013-08-14 18:04:00,
2013-08-14 11:09:00,90.4,59.8,29.79,SW,220,0.0,8.0,36,0.00,,,0.00,1004,Wunderground v.1.15,2013-08-14 18:09:00,
2013-08-14 11:15:00,90.6,60.8,29.79,SW,220,0.0,1.0,37,0.00,,,0.00,1000,Wunderground v.1.15,2013-08-14 18:15:00,
2013-08-14 11:20:00,90.9,61.0,29.78,SW,220,0.0,0.0,37,0.00,,,0.00,754,Wunderground v.1.15,2013-08-14 18:20:00,
2013-08-14 11:25:00,91.1,60.4,29.79,SW,220,0.0,0.0,36,0.00,,,0.00,568,Wunderground v.1.15,2013-08-14 18:25:00,
2013-08-14 11:31:00,91.1,59.6,29.78,SW,220,2.0,2.0,35,0.00,,,0.00,466,Wunderground v.1.15,2013-08-14 18:31:00,
2013-08-14 11:36:00,91.0,61.1,29.78,SW,220,0.0,2.0,37,0.00,,,0.00,796,Wunderground v.1.15,2013-08-14 18:36:00,
2013-08-14 11:41:00,91.1,62.0,29.78,SW,220,0.0,0.0,38,0.00,,,0.00,698,Wunderground v.1.15,2013-08-14 18:41:00,
2013-08-14 11:46:00,91.3,61.4,29.78,SW,220,0.0,0.0,37,0.00,,,0.00,708,Wunderground v.1.15,2013-08-14 18:46:00,
2013-08-14 11:52:00,91.5,63.1,29.77,SW,220,0.0,0.0,39,0.00,,,0.00,1034,Wunderground v.1.15,2013-08-14 18:52:00,
2013-08-14 11:57:00,91.9,64.8,29.77,SW,220,0.0,0.0,41,0.00,,,0.00,1002,Wunderground v.1.15,2013-08-14 18:57:00,
2013-08-14 12:02:00,92.4,60.8,29.77,SW,220,0.0,0.0,35,0.00,,,0.00,1004,Wunderground v.1.15,2013-08-14 19:02:00,
2013-08-14 12:07:00,92.6,62.5,29.77,SW,220,0.0,1.0,37,0.00,,,0.00,1004,Wunderground v.1.15,2013-08-14 19:07:00,
2013-08-14 12:12:00,93.0,64.4,29.76,SW,215,0.0,1.0,39,0.00,,,0.00,1028,Wunderground v.1.15,2013-08-14 19:12:00,
2013-08-14 12:17:00,93.2,63.1,29.76,SSW,212,0.0,6.0,37,0.00,,,0.00,1035,Wunderground v.1.15,2013-08-14 19:17:00,
2013-08-14 12:22:00,93.3,63.9,29.76,SSW,212,0.0,5.0,38,0.00,,,0.00,993,Wunderground v.1.15,2013-08-14 19:22:00,
2013-08-14 12:28:00,93.4,63.2,29.76,SSW,212,0.0,5.0,37,0.00,,,0.00,983,Wunderground v.1.15,2013-08-14 19:28:00,
2013-08-14 12:33:00,93.3,61.6,29.75,SSW,212,0.0,1.0,35,0.00,,,0.00,979,Wunderground v.1.15,2013-08-14 19:33:00,
2013-08-14 12:38:00,93.1,63.0,29.75,SSW,193,0.0,6.0,37,0.00,,,0.00,979,Wunderground v.1.15,2013-08-14 19:38:00,
2013-08-14 12:43:00,93.1,62.2,29.74,South,189,0.0,6.0,36,0.00,,,0.00,984,Wunderground v.1.15,2013-08-14 19:43:00,
2013-08-14 12:48:00,93.3,63.9,29.74,South,188,0.0,6.0,38,0.00,,,0.00,1011,Wunderground v.1.15,2013-08-14 19:48:00,
2013-08-14 12:54:00,93.7,62.7,29.73,South,189,0.0,0.0,36,0.00,,,0.00,1018,Wunderground v.1.15,2013-08-14 19:54:00,
2013-08-14 12:59:00,93.9,62.1,29.73,South,180,0.0,6.0,35,0.00,,,0.00,1037,Wunderground v.1.15,2013-08-14 19:59:00,
2013-08-14 13:04:00,94.3,63.2,29.73,South,180,0.0,0.0,36,0.00,,,0.00,1063,Wunderground v.1.15,2013-08-14 20:04:00,
2013-08-14 13:09:00,94.7,62.0,29.73,South,181,0.0,11.0,34,0.00,,,0.00,1060,Wunderground v.1.15,2013-08-14 20:09:00,
2013-08-14 13:14:00,95.1,61.5,29.72,South,181,0.0,0.0,33,0.00,,,0.00,1013,Wunderground v.1.15,2013-08-14 20:14:00,
2013-08-14 13:19:00,95.3,60.8,29.73,South,181,0.0,4.0,32,0.00,,,0.00,940,Wunderground v.1.15,2013-08-14 20:19:00,
2013-08-14 13:24:00,95.3,60.8,29.73,South,179,0.0,0.0,32,0.00,,,0.00,870,Wunderground v.1.15,2013-08-14 20:24:00,
2013-08-14 13:30:00,95.3,60.8,29.72,SSE,168,12.0,12.0,32,0.00,,,0.00,860,Wunderground v.1.15,2013-08-14 20:30:00,
2013-08-14 13:35:00,95.2,60.7,29.72,SSE,162,3.0,9.0,32,0.00,,,0.00,905,Wunderground v.1.15,2013-08-14 20:35:00,
2013-08-14 13:41:00,95.2,62.4,29.72,SSE,162,0.0,3.0,34,0.00,,,0.00,954,Wunderground v.1.15,2013-08-14 20:41:00,
2013-08-14 13:46:00,95.3,64.1,29.72,SSE,162,0.0,7.0,36,0.00,,,0.00,844,Wunderground v.1.15,2013-08-14 20:46:00,
2013-08-14 13:51:00,95.2,59.8,29.72,SSE,162,0.0,7.0,31,0.00,,,0.00,759,Wunderground v.1.15,2013-08-14 20:51:00,
2013-08-14 13:56:00,95.0,61.4,29.72,SSE,161,1.0,9.0,33,0.00,,,0.00,819,Wunderground v.1.15,2013-08-14 20:56:00,
2013-08-14 14:02:00,94.9,60.4,29.71,SSE,160,0.0,1.0,32,0.00,,,0.00,715,Wunderground v.1.15,2013-08-14 21:02:00,
2013-08-14 14:07:00,95.0,62.2,29.71,SSE,160,0.0,1.0,34,0.00,,,0.00,719,Wunderground v.1.15,2013-08-14 21:07:00,
2013-08-14 14:12:00,95.0,61.4,29.71,SSE,160,7.0,8.0,33,0.00,,,0.00,786,Wunderground v.1.15,2013-08-14 21:12:00,
2013-08-14 14:17:00,94.8,58.5,29.71,SSE,152,0.0,8.0,30,0.00,,,0.00,935,Wunderground v.1.15,2013-08-14 21:17:00,
2013-08-14 14:22:00,94.9,58.6,29.71,SSE,152,0.0,1.0,30,0.00,,,0.00,881,Wunderground v.1.15,2013-08-14 21:22:00,
2013-08-14 14:27:00,95.1,60.6,29.71,SSE,152,0.0,4.0,32,0.00,,,0.00,693,Wunderground v.1.15,2013-08-14 21:27:00,
2013-08-14 14:32:00,95.2,60.7,29.71,SSE,151,1.0,3.0,32,0.00,,,0.00,726,Wunderground v.1.15,2013-08-14 21:32:00,
2013-08-14 14:37:00,95.2,61.6,29.71,SSE,152,1.0,3.0,33,0.00,,,0.00,436,Wunderground v.1.15,2013-08-14 21:37:00,
2013-08-14 14:42:00,95.1,59.7,29.70,SSE,152,0.0,0.0,31,0.00,,,0.00,274,Wunderground v.1.15,2013-08-14 21:42:00,
2013-08-14 14:47:00,94.8,61.2,29.70,SSE,152,0.0,1.0,33,0.00,,,0.00,234,Wunderground v.1.15,2013-08-14 21:47:00,
2013-08-14 14:52:00,94.1,61.4,29.70,SSE,151,0.0,3.0,34,0.00,,,0.00,204,Wunderground v.1.15,2013-08-14 21:52:00,
2013-08-14 14:58:00,93.3,60.7,29.70,SSE,152,0.0,3.0,34,0.00,,,0.00,151,Wunderground v.1.15,2013-08-14 21:58:00,
2013-08-14 15:03:00,92.9,59.6,29.71,SSE,152,0.0,0.0,33,0.00,,,0.00,118,Wunderground v.1.15,2013-08-14 22:03:00,
2013-08-14 15:08:00,92.5,60.9,29.71,SSE,151,0.0,0.0,35,0.00,,,0.00,90,Wunderground v.1.15,2013-08-14 22:08:00,
2013-08-14 15:13:00,91.8,60.3,29.70,SSE,153,0.0,6.0,35,0.00,,,0.00,97,Wunderground v.1.15,2013-08-14 22:13:00,
2013-08-14 15:18:00,91.0,60.3,29.70,SSE,155,5.0,6.0,36,0.00,,,0.00,90,Wunderground v.1.15,2013-08-14 22:18:00,
2013-08-14 15:23:00,89.8,59.3,29.70,South,180,1.0,12.0,36,0.00,,,0.00,88,Wunderground v.1.15,2013-08-14 22:23:00,
2013-08-14 15:29:00,88.7,59.1,29.71,South,180,0.0,12.0,37,0.00,,,0.00,88,Wunderground v.1.15,2013-08-14 22:29:00,
2013-08-14 15:34:00,87.7,56.7,29.72,South,180,0.0,4.0,35,0.00,,,0.00,72,Wunderground v.1.15,2013-08-14 22:34:00,
2013-08-14 15:39:00,86.7,60.2,29.73,South,180,0.0,4.0,41,0.00,,,0.00,63,Wunderground v.1.15,2013-08-14 22:39:00,
2013-08-14 15:44:00,85.3,65.7,29.73,South,180,7.0,8.0,52,0.00,,,0.00,63,Wunderground v.1.15,2013-08-14 22:44:00,
2013-08-14 15:49:00,82.6,63.2,29.73,SSW,206,4.0,11.0,52,0.00,,,0.00,65,Wunderground v.1.15,2013-08-14 22:49:00,
2013-08-14 15:54:00,80.5,63.4,29.72,SSW,207,0.0,5.0,56,0.00,,,0.00,77,Wunderground v.1.15,2013-08-14 22:54:00,
2013-08-14 15:59:00,78.9,64.8,29.72,SSW,207,0.0,5.0,62,0.00,,,0.00,88,Wunderground v.1.15,2013-08-14 22:59:00,
2013-08-14 16:04:00,78.1,66.7,29.72,SSW,207,0.0,0.0,68,0.00,,,0.01,90,Wunderground v.1.15,2013-08-14 23:04:00,
2013-08-14 16:10:00,77.3,66.3,29.72,SSW,207,0.0,0.0,69,0.00,,,0.01,83,Wunderground v.1.15,2013-08-14 23:10:00,
2013-08-14 16:16:00,76.2,66.1,29.72,SSW,211,0.0,7.0,71,0.00,,,0.01,84,Wunderground v.1.15,2013-08-14 23:16:00,
2013-08-14 16:21:00,75.6,65.9,29.73,SSW,211,0.0,2.0,72,0.00,,,0.01,70,Wunderground v.1.15,2013-08-14 23:21:00,
2013-08-14 16:26:00,75.3,66.0,29.73,SSW,211,0.0,2.0,73,0.00,,,0.01,53,Wunderground v.1.15,2013-08-14 23:26:00,
2013-08-14 16:31:00,75.1,64.2,29.75,SSE,164,2.0,8.0,69,0.00,,,0.01,37,Wunderground v.1.15,2013-08-14 23:31:00,
2013-08-14 16:36:00,75.5,63.3,29.75,SSE,164,0.0,8.0,66,0.00,,,0.01,33,Wunderground v.1.15,2013-08-14 23:36:00,
2013-08-14 16:41:00,75.9,65.0,29.75,SSE,164,0.0,1.0,69,0.00,,,0.01,35,Wunderground v.1.15,2013-08-14 23:41:00,
2013-08-14 16:46:00,76.2,65.3,29.75,South,169,10.0,11.0,69,0.00,,,0.01,44,Wunderground v.1.15,2013-08-14 23:46:00,
2013-08-14 16:51:00,75.8,63.6,29.75,South,185,3.0,11.0,66,0.00,,,0.01,44,Wunderground v.1.15,2013-08-14 23:51:00,
2013-08-14 16:56:00,75.4,64.1,29.75,SSW,197,3.0,13.0,68,0.00,,,0.01,32,Wunderground v.1.15,2013-08-14 23:56:00,
2013-08-14 17:01:00,74.8,63.9,29.75,SSW,205,6.0,8.0,69,0.00,,,0.01,23,Wunderground v.1.15,2013-08-15 00:01:00,
2013-08-14 17:06:00,73.9,62.2,29.75,SSW,197,8.0,10.0,67,0.00,,,0.01,19,Wunderground v.1.15,2013-08-15 00:06:00,
2013-08-14 17:11:00,73.1,61.9,29.75,SSW,195,12.0,15.0,68,0.00,,,0.02,18,Wunderground v.1.15,2013-08-15 00:11:00,
2013-08-14 17:16:00,72.3,62.0,29.75,SSW,201,9.0,16.0,70,0.00,,,0.02,19,Wunderground v.1.15,2013-08-15 00:16:00,
2013-08-14 17:21:00,71.3,61.8,29.75,SSW,205,3.0,15.0,72,0.00,,,0.02,21,Wunderground v.1.15,2013-08-15 00:21:00,
2013-08-14 17:26:00,70.5,61.4,29.74,SSW,204,8.0,15.0,73,0.00,,,0.02,23,Wunderground v.1.15,2013-08-15 00:26:00,
2013-08-14 17:31:00,70.0,60.6,29.74,SSW,207,10.0,15.0,72,0.00,,,0.02,25,Wunderground v.1.15,2013-08-15 00:31:00,
2013-08-14 17:36:00,69.9,60.5,29.74,SSW,206,9.0,16.0,72,0.00,,,0.02,25,Wunderground v.1.15,2013-08-15 00:36:00,
2013-08-14 17:41:00,70.1,59.9,29.74,SSW,201,10.0,12.0,70,0.00,,,0.02,25,Wunderground v.1.15,2013-08-15 00:41:00,
2013-08-14 17:46:00,70.4,59.7,29.74,SSW,196,3.0,15.0,69,0.00,,,0.02,25,Wunderground v.1.15,2013-08-15 00:46:00,
2013-08-14 17:51:00,70.7,59.6,29.75,SSW,195,5.0,13.0,68,0.00,,,0.02,21,Wunderground v.1.15,2013-08-15 00:51:00,
2013-08-14 17:56:00,71.0,59.9,29.75,SSW,192,7.0,14.0,68,0.00,,,0.02,18,Wunderground v.1.15,2013-08-15 00:56:00,
2013-08-14 18:01:00,71.1,59.6,29.75,SSW,195,2.0,14.0,67,0.00,,,0.02,14,Wunderground v.1.15,2013-08-15 01:01:00,
2013-08-14 18:06:00,71.1,60.0,29.76,South,181,4.0,14.0,68,0.00,,,0.02,11,Wunderground v.1.15,2013-08-15 01:06:00,
2013-08-14 18:11:00,71.2,59.7,29.76,SSW,196,9.0,17.0,67,0.00,,,0.02,11,Wunderground v.1.15,2013-08-15 01:11:00,
2013-08-14 18:16:00,71.6,59.2,29.76,SSW,206,10.0,17.0,65,0.00,,,0.02,9,Wunderground v.1.15,2013-08-15 01:16:00,
2013-08-14 18:21:00,72.0,59.2,29.77,South,188,10.0,12.0,64,0.00,,,0.03,7,Wunderground v.1.15,2013-08-15 01:21:00,
2013-08-14 18:26:00,72.3,59.0,29.77,SSW,199,13.0,17.0,63,0.00,,,0.03,5,Wunderground v.1.15,2013-08-15 01:26:00,
2013-08-14 18:31:00,72.4,59.1,29.77,SW,228,11.0,14.0,63,0.00,,,0.03,0,Wunderground v.1.15,2013-08-15 01:31:00,
2013-08-14 18:36:00,72.9,58.7,29.77,SSW,210,13.0,19.0,61,0.00,,,0.03,0,Wunderground v.1.15,2013-08-15 01:36:00,
2013-08-14 18:41:00,73.2,57.5,29.78,SSW,211,7.0,12.0,58,0.00,,,0.03,0,Wunderground v.1.15,2013-08-15 01:41:00,
2013-08-14 18:46:00,73.5,57.8,29.77,South,183,3.0,20.0,58,0.00,,,0.03,0,Wunderground v.1.15,2013-08-15 01:46:00,
2013-08-14 18:51:00,73.6,57.9,29.78,South,187,7.0,13.0,58,0.00,,,0.03,0,Wunderground v.1.15,2013-08-15 01:51:00,
2013-08-14 18:57:00,73.7,57.5,29.78,SSW,194,1.0,13.0,57,0.00,,,0.03,0,Wunderground v.1.15,2013-08-15 01:57:00,
2013-08-14 19:02:00,73.9,57.2,29.78,SSW,197,1.0,9.0,56,0.00,,,0.03,0,Wunderground v.1.15,2013-08-15 02:02:00,
2013-08-14 19:07:00,74.2,56.0,29.78,SSW,205,9.0,9.0,53,0.00,,,0.03,0,Wunderground v.1.15,2013-08-15 02:07:00,
2013-08-14 19:12:00,74.7,55.9,29.78,SSW,207,2.0,7.0,52,0.00,,,0.03,0,Wunderground v.1.15,2013-08-15 02:12:00,
2013-08-14 19:17:00,75.1,55.7,29.78,SSW,208,0.0,7.0,51,0.00,,,0.04,0,Wunderground v.1.15,2013-08-15 02:17:00,
2013-08-14 19:22:00,75.6,54.5,29.78,SSW,210,0.0,2.0,48,0.00,,,0.04,0,Wunderground v.1.15,2013-08-15 02:22:00,
2013-08-14 19:27:00,76.0,54.9,29.79,SSW,210,1.0,4.0,48,0.00,,,0.04,0,Wunderground v.1.15,2013-08-15 02:27:00,
2013-08-14 19:32:00,76.0,58.7,29.79,ESE,120,2.0,7.0,55,0.00,,,0.04,0,Wunderground v.1.15,2013-08-15 02:32:00,
2013-08-14 19:37:00,75.3,58.5,29.78,ESE,120,1.0,8.0,56,0.00,,,0.04,0,Wunderground v.1.15,2013-08-15 02:37:00,
2013-08-14 19:42:00,74.7,57.5,29.78,ESE,122,0.0,4.0,55,0.00,,,0.04,0,Wunderground v.1.15,2013-08-15 02:42:00,
2013-08-14 19:47:00,74.4,57.2,29.78,ESE,122,0.0,6.0,55,0.00,,,0.04,0,Wunderground v.1.15,2013-08-15 02:47:00,
2013-08-14 19:52:00,74.2,58.0,29.78,ESE,123,0.0,0.0,57,0.00,,,0.04,0,Wunderground v.1.15,2013-08-15 02:52:00,
2013-08-14 19:57:00,73.9,58.2,29.78,ESE,119,0.0,8.0,58,0.00,,,0.04,0,Wunderground v.1.15,2013-08-15 02:57:00,
2013-08-14 20:02:00,73.6,58.4,29.78,ESE,119,0.0,1.0,59,0.00,,,0.04,0,Wunderground v.1.15,2013-08-15 03:02:00,
2013-08-14 20:07:00,73.3,57.6,29.79,ESE,120,3.0,3.0,58,0.00,,,0.05,0,Wunderground v.1.15,2013-08-15 03:07:00,
2013-08-14 20:12:00,73.2,57.1,29.80,ESE,120,0.0,1.0,57,0.00,,,0.05,0,Wunderground v.1.15,2013-08-15 03:12:00,
2013-08-14 20:17:00,73.1,57.0,29.80,ESE,120,0.0,6.0,57,0.00,,,0.05,0,Wunderground v.1.15,2013-08-15 03:17:00,
2013-08-14 20:22:00,73.3,56.7,29.81,SE,125,2.0,7.0,56,0.00,,,0.05,0,Wunderground v.1.15,2013-08-15 03:22:00,
2013-08-14 20:27:00,73.7,57.0,29.82,SE,130,0.0,10.0,56,0.00,,,0.05,0,Wunderground v.1.15,2013-08-15 03:27:00,
2013-08-14 20:32:00,73.6,57.9,29.83,SE,131,0.0,2.0,58,0.00,,,0.05,0,Wunderground v.1.15,2013-08-15 03:32:00,
2013-08-14 20:37:00,73.3,58.1,29.83,SE,130,2.0,4.0,59,0.00,,,0.05,0,Wunderground v.1.15,2013-08-15 03:37:00,
2013-08-14 20:42:00,73.0,57.8,29.84,SE,129,0.0,0.0,59,0.00,,,0.05,0,Wunderground v.1.15,2013-08-15 03:42:00,
2013-08-14 20:47:00,72.8,58.1,29.85,SE,128,0.0,0.0,60,0.00,,,0.05,0,Wunderground v.1.15,2013-08-15 03:47:00,
2013-08-14 20:52:00,72.6,57.9,29.86,SE,129,0.0,0.0,60,0.00,,,0.05,0,Wunderground v.1.15,2013-08-15 03:52:00,
2013-08-14 20:57:00,72.4,57.7,29.87,ESE,123,6.0,8.0,60,0.00,,,0.05,0,Wunderground v.1.15,2013-08-15 03:57:00,
2013-08-14 21:01:00,72.3,57.6,29.87,ESE,117,3.0,4.0,60,0.00,,,0.06,0,Wunderground v.1.15,2013-08-15 04:01:00,
2013-08-14 21:06:00,72.3,57.6,29.87,ESE,122,2.0,11.0,60,0.00,,,0.06,0,Wunderground v.1.15,2013-08-15 04:06:00,
2013-08-14 21:11:00,72.5,57.4,29.87,ESE,107,6.0,9.0,59,0.00,,,0.06,0,Wunderground v.1.15,2013-08-15 04:11:00,
2013-08-14 21:16:00,72.6,57.9,29.87,ESE,102,0.0,11.0,60,0.00,,,0.06,0,Wunderground v.1.15,2013-08-15 04:16:00,
2013-08-14 21:21:00,72.5,57.4,29.87,ESE,103,3.0,9.0,59,0.00,,,0.06,0,Wunderground v.1.15,2013-08-15 04:21:00,
2013-08-14 21:26:00,72.7,57.1,29.87,East,101,7.0,9.0,58,0.00,,,0.06,0,Wunderground v.1.15,2013-08-15 04:26:00,
2013-08-14 21:31:00,72.9,56.8,29.88,ESE,104,0.0,6.0,57,0.00,,,0.06,0,Wunderground v.1.15,2013-08-15 04:31:00,
2013-08-14 21:36:00,73.0,56.9,29.88,ESE,105,0.0,7.0,57,0.00,,,0.06,0,Wunderground v.1.15,2013-08-15 04:36:00,
2013-08-14 21:41:00,73.0,55.9,29.88,ESE,104,0.0,1.0,55,0.00,,,0.06,0,Wunderground v.1.15,2013-08-15 04:41:00,
2013-08-14 21:46:00,73.1,57.4,29.89,ESE,105,0.0,1.0,58,0.00,,,0.06,0,Wunderground v.1.15,2013-08-15 04:46:00,
2013-08-14 21:51:00,73.0,56.4,29.89,ESE,105,0.0,0.0,56,0.00,,,0.06,0,Wunderground v.1.15,2013-08-15 04:51:00,
2013-08-14 21:56:00,72.9,56.8,29.89,ESE,104,0.0,0.0,57,0.00,,,0.06,0,Wunderground v.1.15,2013-08-15 04:56:00,
2013-08-14 22:01:00,72.8,57.6,29.89,ESE,105,0.0,0.0,59,0.00,,,0.06,0,Wunderground v.1.15,2013-08-15 05:01:00,
2013-08-14 22:06:00,72.7,58.0,29.89,ESE,105,0.0,0.0,60,0.00,,,0.06,0,Wunderground v.1.15,2013-08-15 05:06:00,
2013-08-14 22:11:00,72.5,58.3,29.89,ESE,105,0.0,0.0,61,0.00,,,0.06,0,Wunderground v.1.15,2013-08-15 05:11:00,
2013-08-14 22:16:00,72.4,58.2,29.89,ESE,104,0.0,0.0,61,0.00,,,0.06,0,Wunderground v.1.15,2013-08-15 05:16:00,
2013-08-14 22:21:00,72.2,58.5,29.88,ESE,105,0.0,0.0,62,0.00,,,0.06,0,Wunderground v.1.15,2013-08-15 05:21:00,
2013-08-14 22:26:00,72.0,58.3,29.88,ESE,105,0.0,0.0,62,0.00,,,0.06,0,Wunderground v.1.15,2013-08-15 05:26:00,
2013-08-14 22:31:00,71.9,59.1,29.89,ESE,104,0.0,0.0,64,0.00,,,0.07,0,Wunderground v.1.15,2013-08-15 05:31:00,
2013-08-14 22:36:00,71.7,58.4,29.89,ESE,104,0.0,0.0,63,0.00,,,0.07,0,Wunderground v.1.15,2013-08-15 05:36:00,
2013-08-14 22:41:00,71.6,59.2,29.89,ESE,105,0.0,0.0,65,0.00,,,0.07,0,Wunderground v.1.15,2013-08-15 05:41:00,
2013-08-14 22:46:00,71.4,59.0,29.89,ESE,105,0.0,0.0,65,0.00,,,0.07,0,Wunderground v.1.15,2013-08-15 05:46:00,
2013-08-14 22:51:00,71.3,60.2,29.89,ESE,104,0.0,0.0,68,0.00,,,0.07,0,Wunderground v.1.15,2013-08-15 05:51:00,
2013-08-14 22:56:00,71.1,60.8,29.89,ESE,105,0.0,0.0,70,0.00,,,0.07,0,Wunderground v.1.15,2013-08-15 05:56:00,
2013-08-14 23:01:00,70.9,60.2,29.89,ESE,105,0.0,0.0,69,0.00,,,0.07,0,Wunderground v.1.15,2013-08-15 06:01:00,
2013-08-14 23:06:00,70.6,60.3,29.89,ESE,104,0.0,0.0,70,0.00,,,0.07,0,Wunderground v.1.15,2013-08-15 06:06:00,
2013-08-14 23:11:00,70.4,59.7,29.89,ESE,105,0.0,0.0,69,0.00,,,0.07,0,Wunderground v.1.15,2013-08-15 06:11:00,
2013-08-14 23:16:00,70.1,59.0,29.89,ESE,104,0.0,0.0,68,0.00,,,0.07,0,Wunderground v.1.15,2013-08-15 06:16:00,
2013-08-14 23:21:00,70.0,59.0,29.89,ESE,105,0.0,0.0,68,0.00,,,0.07,0,Wunderground v.1.15,2013-08-15 06:21:00,
2013-08-14 23:26:00,69.9,58.4,29.89,ESE,104,0.0,0.0,67,0.00,,,0.07,0,Wunderground v.1.15,2013-08-15 06:26:00,
2013-08-14 23:31:00,69.9,58.9,29.89,ESE,105,0.0,0.0,68,0.00,,,0.07,0,Wunderground v.1.15,2013-08-15 06:31:00,
2013-08-14 23:36:00,69.9,58.9,29.89,ESE,105,0.0,0.0,68,0.00,,,0.07,0,Wunderground v.1.15,2013-08-15 06:36:00,
2013-08-14 23:41:00,70.0,59.0,29.88,ESE,105,0.0,0.0,68,0.00,,,0.07,0,Wunderground v.1.15,2013-08-15 06:41:00,
2013-08-14 23:46:00,70.1,58.6,29.88,ESE,105,0.0,0.0,67,0.00,,,0.07,0,Wunderground v.1.15,2013-08-15 06:46:00,
2013-08-14 23:51:00,70.2,58.3,29.88,ESE,111,3.0,7.0,66,0.00,,,0.07,0,Wunderground v.1.15,2013-08-15 06:51:00,
2013-08-14 23:56:00,70.4,58.5,29.88,ESE,114,1.0,7.0,66,0.00,,,0.07,0,Wunderground v.1.15,2013-08-15 06:56:00,